createdAt,value
2022-08-31T00:01:20.915Z,23.09
2022-08-31T00:04:03.515Z,23.09
2022-08-31T00:06:33.095Z,23.07
2022-08-31T00:09:01.153Z,23.09
2022-08-31T00:11:30.977Z,23.08
2022-08-31T00:13:59.371Z,23.07
2022-08-31T00:16:28.121Z,23.07
2022-08-31T00:18:56.173Z,23.06
2022-08-31T00:21:26.167Z,23.02
2022-08-31T00:23:55.589Z,22.99
2022-08-31T00:26:23.692Z,22.94
2022-08-31T00:28:52.292Z,22.92
2022-08-31T00:31:20.562Z,22.89
2022-08-31T00:36:21.236Z,22.83
2022-08-31T00:38:49.566Z,22.80
2022-08-31T00:41:20.693Z,22.79
2022-08-31T00:43:51.355Z,22.77
2022-08-31T00:46:21.787Z,22.72
2022-08-31T00:48:52.833Z,22.69
2022-08-31T00:51:20.970Z,22.67
2022-08-31T00:53:50.851Z,22.66
2022-08-31T00:56:20.896Z,22.63
2022-08-31T00:58:54.679Z,22.60
2022-08-31T01:01:23.883Z,22.59
2022-08-31T01:03:52.105Z,22.56
2022-08-31T01:06:20.152Z,22.56
2022-08-31T01:08:48.216Z,22.54
2022-08-31T01:11:16.232Z,22.53
2022-08-31T01:13:46.075Z,22.51
2022-08-31T01:16:15.798Z,22.47
2022-08-31T01:18:43.900Z,22.44
2022-08-31T01:21:22.260Z,22.41
2022-08-31T01:23:51.651Z,22.35
2022-08-31T01:26:21.314Z,22.30
2022-08-31T01:28:49.634Z,22.27
2022-08-31T01:31:21.123Z,22.23
2022-08-31T01:33:49.149Z,22.19
2022-08-31T01:36:17.431Z,22.16
2022-08-31T01:38:45.753Z,22.12
2022-08-31T01:41:15.114Z,22.10
2022-08-31T01:43:43.204Z,22.08
2022-08-31T01:46:13.234Z,22.04
2022-08-31T01:48:41.747Z,22.02
2022-08-31T01:51:10.792Z,21.98
2022-08-31T01:53:42.095Z,21.96
2022-08-31T01:56:15.865Z,21.93
2022-08-31T01:58:45.100Z,21.90
2022-08-31T02:01:32.569Z,21.86
2022-08-31T02:04:01.464Z,21.83
2022-08-31T02:06:29.512Z,21.80
2022-08-31T02:08:57.486Z,21.77
2022-08-31T02:11:27.018Z,21.76
2022-08-31T02:13:55.035Z,21.73
2022-08-31T02:16:23.065Z,21.70
2022-08-31T02:18:51.280Z,21.69
2022-08-31T02:21:19.296Z,21.68
2022-08-31T02:23:47.298Z,21.67
2022-08-31T02:26:15.400Z,21.67
2022-08-31T02:28:44.773Z,21.62
2022-08-31T02:31:12.896Z,21.62
2022-08-31T02:33:41.005Z,21.59
2022-08-31T02:36:09.118Z,21.58
2022-08-31T02:38:39.032Z,21.52
2022-08-31T02:41:07.280Z,21.52
2022-08-31T02:43:35.291Z,21.51
2022-08-31T02:46:04.728Z,21.46
2022-08-31T02:48:32.812Z,21.48
2022-08-31T02:51:04.495Z,21.47
2022-08-31T02:53:32.511Z,21.45
2022-08-31T02:56:00.514Z,21.44
2022-08-31T02:58:28.521Z,21.42
2022-08-31T03:00:56.530Z,21.42
2022-08-31T03:03:25.983Z,21.40
2022-08-31T03:05:54.020Z,21.36
2022-08-31T03:08:22.013Z,21.36
2022-08-31T03:10:49.986Z,21.36
2022-08-31T03:13:18.116Z,21.37
2022-08-31T03:15:46.256Z,21.39
2022-08-31T03:18:14.284Z,21.39
2022-08-31T03:20:43.673Z,21.38
2022-08-31T03:23:12.316Z,21.41
2022-08-31T03:25:40.433Z,21.40
2022-08-31T03:28:08.439Z,21.41
2022-08-31T03:30:36.424Z,21.41
2022-08-31T03:33:04.393Z,21.43
2022-08-31T03:35:32.392Z,21.45
2022-08-31T03:38:02.611Z,21.48
2022-08-31T03:40:30.742Z,21.48
2022-08-31T03:42:58.971Z,21.47
2022-08-31T03:45:27.861Z,21.45
2022-08-31T03:47:55.944Z,21.43
2022-08-31T03:50:23.953Z,21.42
2022-08-31T03:52:54.236Z,21.40
2022-08-31T03:55:23.729Z,21.37
2022-08-31T03:57:51.751Z,21.37
2022-08-31T04:00:20.085Z,21.33
2022-08-31T04:02:48.132Z,21.33
2022-08-31T04:05:16.458Z,21.29
2022-08-31T04:07:44.514Z,21.28
2022-08-31T04:10:12.880Z,21.26
2022-08-31T04:12:42.361Z,21.25
2022-08-31T04:15:10.939Z,21.23
2022-08-31T04:17:38.939Z,21.22
2022-08-31T04:20:07.808Z,21.19
2022-08-31T04:22:35.823Z,21.16
2022-08-31T04:25:03.822Z,21.14
2022-08-31T04:27:31.983Z,21.06
2022-08-31T04:30:02.078Z,21.10
2022-08-31T04:32:30.059Z,21.08
2022-08-31T04:34:58.246Z,21.08
2022-08-31T04:37:26.255Z,21.07
2022-08-31T04:39:59.341Z,21.06
2022-08-31T04:42:27.542Z,21.04
2022-08-31T04:44:55.549Z,21.02
2022-08-31T04:47:24.965Z,21.00
2022-08-31T04:49:52.976Z,20.99
2022-08-31T04:52:28.110Z,21.00
2022-08-31T04:54:56.961Z,21.00
2022-08-31T04:57:25.017Z,20.99
2022-08-31T04:59:53.161Z,20.96
2022-08-31T05:02:21.217Z,20.95
2022-08-31T05:04:50.565Z,20.95
2022-08-31T05:07:18.612Z,20.93
2022-08-31T05:09:46.647Z,20.91
2022-08-31T05:12:14.615Z,20.86
2022-08-31T05:14:43.349Z,20.87
2022-08-31T05:17:15.029Z,20.85
2022-08-31T05:19:43.436Z,20.82
2022-08-31T05:22:12.838Z,20.83
2022-08-31T05:24:40.881Z,20.83
2022-08-31T05:27:09.796Z,20.84
2022-08-31T05:29:37.962Z,20.82
2022-08-31T05:32:06.095Z,20.87
2022-08-31T05:34:34.493Z,20.82
2022-08-31T05:37:02.493Z,20.87
2022-08-31T05:39:33.344Z,20.87
2022-08-31T05:42:01.489Z,20.87
2022-08-31T05:44:29.765Z,20.90
2022-08-31T05:47:03.409Z,20.92
2022-08-31T05:49:32.554Z,20.98
2022-08-31T05:52:00.878Z,21.02
2022-08-31T05:54:28.951Z,21.06
2022-08-31T05:57:01.301Z,21.09
2022-08-31T05:59:30.105Z,21.12
2022-08-31T06:01:58.317Z,21.17
2022-08-31T06:04:26.384Z,21.25
2022-08-31T06:06:54.401Z,21.30
2022-08-31T06:09:22.459Z,21.35
2022-08-31T06:11:51.358Z,21.19
2022-08-31T06:14:22.866Z,21.50
2022-08-31T06:16:51.765Z,21.57
2022-08-31T06:19:20.746Z,21.63
2022-08-31T06:21:51.466Z,21.71
2022-08-31T06:24:19.852Z,21.74
2022-08-31T06:26:58.774Z,21.83
2022-08-31T06:29:31.713Z,21.90
2022-08-31T06:32:00.437Z,21.94
2022-08-31T06:34:29.480Z,22.01
2022-08-31T06:36:57.542Z,22.06
2022-08-31T06:39:25.596Z,22.11
2022-08-31T06:41:53.962Z,22.13
2022-08-31T06:44:22.687Z,22.16
2022-08-31T06:46:52.376Z,21.96
2022-08-31T06:49:20.518Z,22.27
2022-08-31T06:51:48.495Z,22.36
2022-08-31T06:54:32.673Z,22.42
2022-08-31T06:57:02.855Z,22.50
2022-08-31T06:59:31.067Z,22.56
2022-08-31T07:02:01.286Z,22.59
2022-08-31T07:04:32.436Z,22.65
2022-08-31T07:07:00.568Z,22.67
2022-08-31T07:09:28.625Z,22.66
2022-08-31T07:11:56.857Z,22.56
2022-08-31T07:14:26.126Z,22.70
2022-08-31T07:16:58.598Z,22.76
2022-08-31T07:19:28.164Z,22.83
2022-08-31T07:21:57.025Z,22.88
2022-08-31T07:24:27.839Z,22.86
2022-08-31T07:26:58.147Z,22.84
2022-08-31T07:29:27.702Z,22.90
2022-08-31T07:31:55.731Z,22.88
2022-08-31T07:34:25.938Z,22.99
2022-08-31T07:37:13.012Z,22.97
2022-08-31T07:40:01.294Z,23.01
2022-08-31T07:42:33.187Z,23.00
2022-08-31T07:45:02.295Z,23.00
2022-08-31T07:47:30.467Z,22.97
2022-08-31T07:50:00.644Z,22.95
2022-08-31T07:52:30.848Z,22.96
2022-08-31T07:55:07.855Z,22.99
2022-08-31T07:57:36.376Z,23.01
2022-08-31T08:00:08.381Z,23.00
2022-08-31T08:02:39.240Z,23.05
2022-08-31T08:05:08.516Z,23.06
2022-08-31T08:07:38.700Z,23.01
2022-08-31T08:10:08.465Z,22.93
2022-08-31T08:12:37.696Z,22.83
2022-08-31T08:15:06.193Z,22.76
2022-08-31T08:17:34.318Z,22.74
2022-08-31T08:20:02.412Z,22.72
2022-08-31T08:22:50.824Z,22.74
2022-08-31T08:25:25.770Z,22.82
2022-08-31T08:27:55.256Z,22.92
2022-08-31T08:30:23.462Z,23.01
2022-08-31T08:32:51.438Z,23.12
2022-08-31T08:35:19.773Z,23.22
2022-08-31T08:37:58.411Z,23.37
2022-08-31T08:40:31.634Z,23.44
2022-08-31T08:43:00.031Z,23.57
2022-08-31T08:45:28.098Z,23.64
2022-08-31T08:47:57.041Z,23.67
2022-08-31T08:50:26.712Z,23.74
2022-08-31T08:52:56.110Z,23.71
2022-08-31T08:55:27.780Z,23.84
2022-08-31T08:58:01.649Z,23.93
2022-08-31T09:00:30.585Z,23.94
2022-08-31T09:03:19.891Z,24.01
2022-08-31T09:06:08.544Z,24.14
2022-08-31T09:09:13.277Z,24.26
2022-08-31T09:11:47.272Z,24.36
2022-08-31T09:14:25.377Z,24.47
2022-08-31T09:16:56.243Z,24.49
2022-08-31T09:19:24.620Z,24.55
2022-08-31T09:21:54.049Z,24.60
2022-08-31T09:24:22.907Z,24.62
2022-08-31T09:27:00.894Z,24.67
2022-08-31T09:29:31.934Z,24.71
2022-08-31T09:32:07.037Z,24.73
2022-08-31T09:34:37.321Z,24.78
2022-08-31T09:37:16.286Z,24.91
2022-08-31T09:39:47.685Z,25.02
2022-08-31T09:42:20.787Z,25.05
2022-08-31T09:44:51.456Z,25.02
2022-08-31T09:47:42.225Z,25.10
2022-08-31T09:50:13.527Z,25.15
2022-08-31T09:52:59.301Z,25.15
2022-08-31T09:55:28.222Z,25.22
2022-08-31T09:57:59.157Z,25.36
2022-08-31T10:00:33.213Z,25.47
2022-08-31T10:03:09.747Z,25.54
2022-08-31T10:05:41.833Z,25.49
2022-08-31T10:08:19.469Z,25.54
2022-08-31T10:10:47.782Z,25.59
2022-08-31T10:13:18.148Z,25.64
2022-08-31T10:15:50.990Z,25.80
2022-08-31T10:18:21.921Z,25.85
2022-08-31T10:20:55.979Z,25.89
2022-08-31T10:23:27.287Z,25.83
2022-08-31T10:25:57.523Z,25.81
2022-08-31T10:28:32.201Z,25.75
2022-08-31T10:31:03.513Z,25.72
2022-08-31T10:33:54.263Z,25.83
2022-08-31T10:36:28.309Z,25.87
2022-08-31T10:38:57.999Z,25.95
2022-08-31T10:41:29.108Z,25.84
2022-08-31T10:44:01.711Z,26.12
2022-08-31T10:46:33.390Z,26.16
2022-08-31T10:49:01.945Z,26.27
2022-08-31T10:51:33.197Z,26.39
2022-08-31T10:54:08.391Z,26.61
2022-08-31T10:56:41.683Z,26.81
2022-08-31T10:59:17.418Z,27.00
2022-08-31T11:01:55.949Z,27.16
2022-08-31T11:04:48.933Z,27.50
2022-08-31T11:07:35.407Z,27.82
2022-08-31T11:10:10.273Z,28.03
2022-08-31T11:12:42.430Z,28.11
2022-08-31T11:15:22.497Z,28.22
2022-08-31T11:18:24.989Z,28.36
2022-08-31T11:21:04.068Z,28.45
2022-08-31T11:23:45.122Z,28.40
2022-08-31T11:26:47.934Z,28.64
2022-08-31T11:29:29.923Z,28.79
2022-08-31T11:32:01.153Z,28.93
2022-08-31T11:34:30.724Z,28.99
2022-08-31T11:37:01.118Z,28.94
2022-08-31T11:39:41.483Z,28.87
2022-08-31T11:42:48.500Z,28.99
2022-08-31T11:45:27.346Z,29.55
2022-08-31T11:47:55.956Z,30.14
2022-08-31T11:51:07.393Z,30.71
2022-08-31T11:53:37.546Z,30.98
2022-08-31T11:56:06.671Z,31.13
2022-08-31T11:58:37.995Z,31.16
2022-08-31T12:01:09.517Z,31.19
2022-08-31T12:03:55.767Z,31.29
2022-08-31T12:07:11.120Z,31.52
2022-08-31T12:09:58.747Z,31.58
2022-08-31T12:12:34.304Z,31.60
2022-08-31T12:15:07.838Z,31.68
2022-08-31T12:17:40.221Z,31.73
2022-08-31T12:20:09.602Z,31.71
2022-08-31T12:23:30.050Z,31.62
2022-08-31T12:26:06.929Z,31.44
2022-08-31T12:28:39.741Z,31.62
2022-08-31T12:31:11.418Z,31.74
2022-08-31T12:33:50.818Z,31.56
2022-08-31T12:36:19.916Z,31.51
2022-08-31T12:38:47.934Z,31.34
2022-08-31T12:41:17.296Z,31.12
2022-08-31T12:43:46.093Z,30.97
2022-08-31T12:46:30.658Z,30.77
2022-08-31T12:49:26.136Z,30.89
2022-08-31T12:51:56.962Z,31.13
2022-08-31T12:54:40.660Z,31.30
2022-08-31T12:57:13.568Z,31.46
2022-08-31T12:59:59.857Z,31.35
2022-08-31T13:02:32.902Z,31.13
2022-08-31T13:05:01.150Z,31.06
2022-08-31T13:07:31.076Z,31.03
2022-08-31T13:10:07.205Z,30.94
2022-08-31T13:12:36.635Z,30.99
2022-08-31T13:15:04.929Z,30.83
2022-08-31T13:17:36.976Z,30.87
2022-08-31T13:20:08.498Z,30.94
2022-08-31T13:22:41.254Z,31.11
2022-08-31T13:25:16.460Z,31.19
2022-08-31T13:27:49.502Z,31.29
2022-08-31T13:30:20.190Z,31.22
2022-08-31T13:32:51.275Z,31.26
2022-08-31T13:35:20.233Z,31.19
2022-08-31T13:37:52.523Z,31.04
2022-08-31T13:40:23.869Z,31.01
2022-08-31T13:42:56.461Z,31.12
2022-08-31T13:45:27.442Z,30.88
2022-08-31T13:47:58.083Z,31.00
2022-08-31T13:50:29.182Z,30.97
2022-08-31T13:53:25.332Z,31.13
2022-08-31T13:55:48.860Z,31.26
2022-08-31T13:58:27.643Z,31.63
2022-08-31T14:00:58.885Z,32.03
2022-08-31T14:03:35.001Z,32.32
2022-08-31T14:06:24.036Z,32.57
2022-08-31T14:08:54.554Z,32.65
2022-08-31T14:11:22.709Z,32.51
2022-08-31T14:13:52.740Z,32.37
2022-08-31T14:16:30.648Z,32.43
2022-08-31T14:18:58.847Z,32.70
2022-08-31T14:21:29.026Z,33.00
2022-08-31T14:24:00.569Z,33.39
2022-08-31T14:26:29.528Z,33.91
2022-08-31T14:29:00.438Z,34.34
2022-08-31T14:31:31.042Z,34.80
2022-08-31T14:34:20.379Z,35.21
2022-08-31T14:36:52.837Z,35.29
2022-08-31T14:39:26.586Z,35.42
2022-08-31T14:41:55.061Z,35.66
2022-08-31T14:44:26.104Z,35.91
2022-08-31T14:46:54.171Z,36.11
2022-08-31T14:49:22.120Z,36.29
2022-08-31T14:51:50.284Z,36.33
2022-08-31T14:54:18.381Z,36.32
2022-08-31T14:56:50.311Z,36.37
2022-08-31T14:59:21.561Z,36.47
2022-08-31T15:01:51.368Z,36.38
2022-08-31T15:04:20.659Z,36.40
2022-08-31T15:06:50.087Z,36.34
2022-08-31T15:09:18.169Z,36.33
2022-08-31T15:11:46.314Z,36.28
2022-08-31T15:14:14.280Z,36.35
2022-08-31T15:16:43.087Z,36.39
2022-08-31T15:19:13.558Z,36.43
2022-08-31T15:21:51.780Z,36.48
2022-08-31T15:24:21.143Z,36.55
2022-08-31T15:26:49.390Z,36.53
2022-08-31T15:29:17.896Z,36.55
2022-08-31T15:31:49.229Z,36.57
2022-08-31T15:34:25.482Z,36.65
2022-08-31T15:36:56.323Z,36.69
2022-08-31T15:39:24.774Z,36.82
2022-08-31T15:41:52.883Z,36.91
2022-08-31T15:44:21.378Z,37.05
2022-08-31T15:47:06.977Z,37.28
2022-08-31T15:49:37.154Z,37.31
2022-08-31T15:52:06.854Z,37.23
2022-08-31T15:54:35.825Z,37.01
2022-08-31T15:57:06.854Z,36.75
2022-08-31T15:59:35.145Z,36.99
2022-08-31T16:02:03.473Z,37.08
2022-08-31T16:04:33.358Z,37.16
2022-08-31T16:07:05.230Z,37.13
2022-08-31T16:09:33.378Z,36.98
2022-08-31T16:12:02.424Z,36.72
2022-08-31T16:14:31.730Z,36.74
2022-08-31T16:17:00.426Z,36.64
2022-08-31T16:19:35.505Z,36.59
2022-08-31T16:22:05.743Z,36.42
2022-08-31T16:24:37.414Z,36.42
2022-08-31T16:27:06.418Z,36.52
2022-08-31T16:29:34.542Z,36.54
2022-08-31T16:32:02.809Z,36.59
2022-08-31T16:34:31.596Z,36.57
2022-08-31T16:37:01.103Z,36.44
2022-08-31T16:39:31.132Z,36.42
2022-08-31T16:41:59.916Z,36.47
2022-08-31T16:44:36.500Z,36.54
2022-08-31T16:47:07.085Z,36.60
2022-08-31T16:49:34.236Z,36.74
2022-08-31T16:52:03.469Z,36.85
2022-08-31T16:54:34.050Z,36.83
2022-08-31T16:57:02.415Z,36.63
2022-08-31T16:59:30.821Z,36.60
2022-08-31T17:01:58.993Z,36.68
2022-08-31T17:04:51.123Z,36.61
2022-08-31T17:07:16.315Z,36.36
2022-08-31T17:09:45.805Z,36.06
2022-08-31T17:12:15.256Z,35.67
2022-08-31T17:14:46.537Z,35.17
2022-08-31T17:17:15.517Z,34.70
2022-08-31T17:19:44.547Z,33.89
2022-08-31T17:22:21.387Z,32.89
2022-08-31T17:24:56.326Z,31.94
2022-08-31T17:27:24.794Z,31.24
2022-08-31T17:29:53.937Z,30.69
2022-08-31T17:32:23.704Z,30.15
2022-08-31T17:34:52.103Z,29.89
2022-08-31T17:37:23.038Z,29.61
2022-08-31T17:42:35.651Z,29.14
2022-08-31T17:45:05.124Z,28.96
2022-08-31T17:47:33.986Z,28.82
2022-08-31T17:50:01.987Z,28.67
2022-08-31T17:52:30.210Z,28.54
2022-08-31T17:55:00.522Z,28.43
2022-08-31T17:57:29.658Z,28.35
2022-08-31T17:59:59.134Z,28.24
2022-08-31T18:02:32.596Z,28.14
2022-08-31T18:05:01.117Z,28.03
2022-08-31T18:07:29.415Z,27.96
2022-08-31T18:09:57.669Z,27.87
2022-08-31T18:12:26.094Z,27.77
2022-08-31T18:14:57.549Z,27.68
2022-08-31T18:17:28.097Z,27.58
2022-08-31T18:19:59.527Z,27.48
2022-08-31T18:22:29.156Z,27.39
2022-08-31T18:24:58.204Z,27.34
2022-08-31T18:27:27.287Z,27.21
2022-08-31T18:29:56.683Z,27.15
2022-08-31T18:32:27.118Z,27.08
2022-08-31T18:34:58.351Z,26.97
2022-08-31T18:37:26.950Z,26.88
2022-08-31T18:40:12.885Z,26.80
2022-08-31T18:42:58.360Z,26.72
2022-08-31T18:45:27.129Z,26.60
2022-08-31T18:50:45.816Z,26.49
2022-08-31T18:53:15.466Z,26.44
2022-08-31T18:55:55.725Z,26.37
2022-08-31T18:58:24.185Z,26.27
2022-08-31T19:00:59.838Z,26.15
2022-08-31T19:03:30.240Z,26.08
2022-08-31T19:05:58.437Z,25.99
2022-08-31T19:08:26.990Z,25.93
2022-08-31T19:10:56.440Z,25.86
2022-08-31T19:13:26.412Z,25.78
2022-08-31T19:15:58.033Z,25.69
2022-08-31T19:18:30.687Z,25.61
2022-08-31T19:20:58.866Z,25.55
2022-08-31T19:23:28.181Z,25.49
2022-08-31T19:25:56.270Z,25.41
2022-08-31T19:28:24.504Z,25.34
2022-08-31T19:30:52.623Z,25.31
2022-08-31T19:33:24.985Z,25.25
2022-08-31T19:36:01.356Z,25.20
2022-08-31T19:38:33.136Z,25.16
2022-08-31T19:41:01.599Z,25.10
2022-08-31T19:44:01.976Z,25.09
2022-08-31T19:46:20.289Z,25.02
2022-08-31T19:48:49.644Z,25.03
2022-08-31T19:51:20.478Z,25.05
2022-08-31T19:53:49.894Z,25.02
2022-08-31T19:56:21.067Z,24.98
2022-08-31T19:58:50.222Z,24.96
2022-08-31T20:01:18.677Z,24.95
2022-08-31T20:03:47.999Z,24.95
2022-08-31T20:06:19.321Z,24.92
2022-08-31T20:08:47.768Z,24.91
2022-08-31T20:11:21.288Z,24.86
2022-08-31T20:13:49.930Z,24.85
2022-08-31T20:16:18.305Z,24.83
2022-08-31T20:18:48.674Z,24.84
2022-08-31T20:21:19.398Z,24.83
2022-08-31T20:23:48.027Z,24.81
2022-08-31T20:26:16.130Z,24.85
2022-08-31T20:28:46.841Z,24.85
2022-08-31T20:31:15.307Z,24.85
2022-08-31T20:33:43.437Z,24.84
2022-08-31T20:36:18.830Z,24.85
2022-08-31T20:38:48.380Z,24.86
2022-08-31T20:41:16.615Z,24.86
2022-08-31T20:43:45.271Z,24.86
2022-08-31T20:46:34.493Z,24.84
2022-08-31T20:49:20.085Z,24.85
2022-08-31T20:51:48.079Z,24.83
2022-08-31T20:54:18.197Z,24.80
2022-08-31T20:56:46.214Z,24.80
2022-08-31T20:59:14.262Z,24.78
2022-08-31T21:01:42.374Z,24.73
2022-08-31T21:04:10.465Z,24.75
2022-08-31T21:06:39.273Z,24.67
2022-08-31T21:09:08.219Z,24.72
2022-08-31T21:11:40.666Z,24.70
2022-08-31T21:14:08.741Z,24.69
2022-08-31T21:16:36.802Z,24.67
2022-08-31T21:19:05.073Z,24.67
2022-08-31T21:21:33.077Z,24.65
2022-08-31T21:24:01.126Z,24.63
2022-08-31T21:26:29.189Z,24.61
2022-08-31T21:28:59.856Z,24.61
2022-08-31T21:31:29.417Z,24.58
2022-08-31T21:33:59.053Z,24.56
2022-08-31T21:36:27.545Z,24.54
2022-08-31T21:38:56.332Z,24.51
2022-08-31T21:41:25.738Z,24.50
2022-08-31T21:43:53.742Z,24.48
2022-08-31T21:46:25.138Z,24.51
2022-08-31T21:48:54.222Z,24.48
2022-08-31T21:51:23.097Z,24.49
2022-08-31T21:53:52.002Z,24.45
2022-08-31T21:56:20.297Z,24.43
2022-08-31T21:58:48.499Z,24.40
2022-08-31T22:01:18.645Z,24.39
2022-08-31T22:03:48.265Z,24.37
2022-08-31T22:06:22.068Z,24.37
2022-08-31T22:08:55.922Z,24.35
2022-08-31T22:11:24.837Z,24.34
2022-08-31T22:13:54.076Z,24.34
2022-08-31T22:16:22.164Z,24.34
2022-08-31T22:19:01.647Z,24.33
2022-08-31T22:21:31.200Z,24.30
2022-08-31T22:24:00.306Z,24.31
2022-08-31T22:26:29.297Z,24.29
2022-08-31T22:28:57.336Z,24.29
2022-08-31T22:31:27.329Z,24.28
2022-08-31T22:33:57.164Z,24.25
2022-08-31T22:36:31.131Z,24.25
2022-08-31T22:39:03.176Z,24.24
2022-08-31T22:41:32.041Z,24.22
2022-08-31T22:44:00.212Z,24.20
2022-08-31T22:46:28.400Z,24.17
2022-08-31T22:48:58.353Z,24.15
2022-08-31T22:51:27.085Z,24.14
2022-08-31T22:53:55.128Z,24.15
2022-08-31T22:56:25.988Z,24.13
2022-08-31T22:58:54.225Z,24.12
2022-08-31T23:01:23.236Z,24.10
2022-08-31T23:03:51.593Z,24.11
2022-08-31T23:06:23.296Z,24.09
2022-08-31T23:08:51.832Z,24.03
2022-08-31T23:11:20.411Z,24.04
2022-08-31T23:13:55.567Z,24.01
2022-08-31T23:16:25.053Z,23.99
2022-08-31T23:18:53.788Z,23.94
2022-08-31T23:21:24.932Z,23.93
2022-08-31T23:23:53.125Z,23.92
2022-08-31T23:26:22.588Z,23.90
2022-08-31T23:28:52.651Z,23.86
2022-08-31T23:31:21.569Z,23.80
2022-08-31T23:33:53.293Z,23.77
2022-08-31T23:36:26.141Z,23.72
2022-08-31T23:38:54.921Z,23.71
2022-08-31T23:41:26.066Z,23.66
2022-08-31T23:43:54.384Z,23.65
2022-08-31T23:46:23.895Z,23.62
2022-08-31T23:48:52.126Z,23.59
2022-08-31T23:51:20.379Z,23.58
2022-08-31T23:53:55.206Z,23.57
2022-08-31T23:56:32.607Z,23.54
2022-08-31T23:59:01.933Z,23.47
